Lochmaben, United Kingdom
Current Conditions -  °F | °C
As of 5:50 PM on Wednesday 26 Nov 2014 (Local Time) from EGNC Reporting Station
Broken Clouds Broken Clouds  
Wind Chill: 39°   Ceiling: 2400
Heat Index: 43°   Visibility: 6mi
Dew Point: 43°   Wind: 7mph
Humidity: 100%   Direction: 70°ENE
Pressure: 29.85"   Gusts: NA
Location:  55.13°N, 3.44°W
Report Text: EGNC 261750Z 07006KT 9999 FEW004 SCT014 BKN024 06/06 Q1011
Loading
Personal Weather Stations






























Interactive Weather Map New forecast layout! Learn more

10-Day Weather Forecast

Advertisements
Track Severe Weather on mobile